sensor_id;sensor_type;location;lat;lon;timestamp;pressure;altitude;pressure_sealevel;temperature;humidity
14612;BME280;7392;52.078;11.650;2023-03-04T00:00:31;101361.69;;;-0.43;100.00
14612;BME280;7392;52.078;11.650;2023-03-04T00:02:58;101356.31;;;-0.46;100.00
14612;BME280;7392;52.078;11.650;2023-03-04T00:05:26;101356.25;;;-0.48;100.00
14612;BME280;7392;52.078;11.650;2023-03-04T00:07:57;101357.97;;;-0.48;100.00
14612;BME280;7392;52.078;11.650;2023-03-04T00:10:26;101357.88;;;-0.50;100.00
14612;BME280;7392;52.078;11.650;2023-03-04T00:12:54;101358.53;;;-0.54;100.00
14612;BME280;7392;52.078;11.650;2023-03-04T00:15:22;101348.03;;;-0.55;100.00
14612;BME280;7392;52.078;11.650;2023-03-04T00:17:49;101355.84;;;-0.55;100.00
14612;BME280;7392;52.078;11.650;2023-03-04T00:20:17;101348.03;;;-0.55;100.00
14612;BME280;7392;52.078;11.650;2023-03-04T00:22:45;101342.88;;;-0.54;100.00
14612;BME280;7392;52.078;11.650;2023-03-04T00:25:15;101336.84;;;-0.53;100.00
14612;BME280;7392;52.078;11.650;2023-03-04T00:27:43;101338.72;;;-0.50;100.00
14612;BME280;7392;52.078;11.650;2023-03-04T00:30:11;101332.69;;;-0.49;100.00
14612;BME280;7392;52.078;11.650;2023-03-04T00:32:40;101338.88;;;-0.47;100.00
14612;BME280;7392;52.078;11.650;2023-03-04T00:35:08;101343.22;;;-0.48;100.00
14612;BME280;7392;52.078;11.650;2023-03-04T00:37:36;101342.38;;;-0.47;100.00
14612;BME280;7392;52.078;11.650;2023-03-04T00:40:05;101336.28;;;-0.47;100.00
14612;BME280;7392;52.078;11.650;2023-03-04T00:42:34;101350.22;;;-0.47;100.00
14612;BME280;7392;52.078;11.650;2023-03-04T00:45:03;101349.41;;;-0.46;100.00
14612;BME280;7392;52.078;11.650;2023-03-04T00:47:30;101341.66;;;-0.44;100.00
14612;BME280;7392;52.078;11.650;2023-03-04T00:49:58;101336.66;;;-0.40;100.00
14612;BME280;7392;52.078;11.650;2023-03-04T00:52:26;101335.94;;;-0.37;100.00
14612;BME280;7392;52.078;11.650;2023-03-04T00:54:54;101332.56;;;-0.34;100.00
14612;BME280;7392;52.078;11.650;2023-03-04T00:57:23;101334.53;;;-0.30;100.00
14612;BME280;7392;52.078;11.650;2023-03-04T00:59:52;101326.91;;;-0.26;100.00
14612;BME280;7392;52.078;11.650;2023-03-04T01:02:20;101323.66;;;-0.22;100.00
14612;BME280;7392;52.078;11.650;2023-03-04T01:04:47;101326.56;;;-0.15;100.00
14612;BME280;7392;52.078;11.650;2023-03-04T01:07:15;101332.84;;;-0.12;100.00
14612;BME280;7392;52.078;11.650;2023-03-04T01:09:44;101327.03;;;-0.06;100.00
14612;BME280;7392;52.078;11.650;2023-03-04T01:12:11;101321.22;;;-0.01;100.00
14612;BME280;7392;52.078;11.650;2023-03-04T01:14:39;101319.06;;;0.09;100.00
14612;BME280;7392;52.078;11.650;2023-03-04T01:17:08;101322.81;;;0.14;100.00
14612;BME280;7392;52.078;11.650;2023-03-04T01:19:37;101298.84;;;0.23;100.00
14612;BME280;7392;52.078;11.650;2023-03-04T01:22:05;101306.22;;;0.31;100.00
14612;BME280;7392;52.078;11.650;2023-03-04T01:24:33;101306.56;;;0.39;100.00
14612;BME280;7392;52.078;11.650;2023-03-04T01:27:02;101304.34;;;0.47;100.00
14612;BME280;7392;52.078;11.650;2023-03-04T01:29:29;101294.25;;;0.54;100.00
14612;BME280;7392;52.078;11.650;2023-03-04T01:31:57;101294.47;;;0.59;100.00
14612;BME280;7392;52.078;11.650;2023-03-04T01:34:26;101285.03;;;0.63;100.00
14612;BME280;7392;52.078;11.650;2023-03-04T01:36:56;101287.00;;;0.67;100.00
14612;BME280;7392;52.078;11.650;2023-03-04T01:39:23;101288.91;;;0.71;100.00
14612;BME280;7392;52.078;11.650;2023-03-04T01:41:51;101283.06;;;0.77;100.00
14612;BME280;7392;52.078;11.650;2023-03-04T01:44:19;101272.00;;;0.82;100.00
14612;BME280;7392;52.078;11.650;2023-03-04T01:46:49;101268.63;;;0.85;100.00
14612;BME280;7392;52.078;11.650;2023-03-04T01:49:18;101266.16;;;0.88;100.00
14612;BME280;7392;52.078;11.650;2023-03-04T01:51:49;101268.06;;;0.92;100.00
14612;BME280;7392;52.078;11.650;2023-03-04T01:54:18;101262.91;;;0.93;100.00
14612;BME280;7392;52.078;11.650;2023-03-04T01:56:47;101249.16;;;0.98;100.00
14612;BME280;7392;52.078;11.650;2023-03-04T01:59:18;101245.84;;;1.02;100.00
14612;BME280;7392;52.078;11.650;2023-03-04T02:01:47;101248.66;;;1.06;100.00
14612;BME280;7392;52.078;11.650;2023-03-04T02:04:16;101247.06;;;1.10;100.00
14612;BME280;7392;52.078;11.650;2023-03-04T02:06:45;101245.41;;;1.12;100.00
14612;BME280;7392;52.078;11.650;2023-03-04T02:09:16;101239.44;;;1.15;100.00
14612;BME280;7392;52.078;11.650;2023-03-04T02:11:45;101234.38;;;1.19;100.00
14612;BME280;7392;52.078;11.650;2023-03-04T02:14:15;101228.47;;;1.23;100.00
14612;BME280;7392;52.078;11.650;2023-03-04T02:16:43;101219.91;;;1.27;100.00
14612;BME280;7392;52.078;11.650;2023-03-04T02:19:18;101220.06;;;1.30;100.00
14612;BME280;7392;52.078;11.650;2023-03-04T02:21:49;101217.56;;;1.34;100.00
14612;BME280;7392;52.078;11.650;2023-03-04T02:24:23;101215.09;;;1.37;100.00
14612;BME280;7392;52.078;11.650;2023-03-04T02:26:53;101212.66;;;1.41;100.00
14612;BME280;7392;52.078;11.650;2023-03-04T02:29:22;101206.59;;;1.42;100.00
14612;BME280;7392;52.078;11.650;2023-03-04T02:31:51;101206.78;;;1.47;100.00
14612;BME280;7392;52.078;11.650;2023-03-04T02:34:22;101202.50;;;1.49;100.00
14612;BME280;7392;52.078;11.650;2023-03-04T02:36:52;101199.19;;;1.53;100.00
14612;BME280;7392;52.078;11.650;2023-03-04T02:39:26;101208.06;;;1.57;100.00
14612;BME280;7392;52.078;11.650;2023-03-04T02:41:56;101202.94;;;1.60;100.00
14612;BME280;7392;52.078;11.650;2023-03-04T02:44:27;101198.72;;;1.63;100.00
14612;BME280;7392;52.078;11.650;2023-03-04T02:46:56;101204.09;;;1.66;100.00
14612;BME280;7392;52.078;11.650;2023-03-04T02:49:27;101197.19;;;1.68;100.00
14612;BME280;7392;52.078;11.650;2023-03-04T02:52:01;101195.59;;;1.72;100.00
14612;BME280;7392;52.078;11.650;2023-03-04T02:54:30;101193.03;;;1.74;100.00
14612;BME280;7392;52.078;11.650;2023-03-04T02:57:03;101194.06;;;1.77;100.00
14612;BME280;7392;52.078;11.650;2023-03-04T02:59:34;101193.31;;;1.80;100.00
14612;BME280;7392;52.078;11.650;2023-03-04T03:02:03;101198.69;;;1.84;100.00
14612;BME280;7392;52.078;11.650;2023-03-04T03:04:32;101194.44;;;1.86;100.00
14612;BME280;7392;52.078;11.650;2023-03-04T03:07:04;101195.47;;;1.90;100.00
14612;BME280;7392;52.078;11.650;2023-03-04T03:09:33;101191.16;;;1.92;100.00
14612;BME280;7392;52.078;11.650;2023-03-04T03:12:02;101189.56;;;1.96;100.00
14612;BME280;7392;52.078;11.650;2023-03-04T03:14:31;101184.44;;;1.99;100.00
14612;BME280;7392;52.078;11.650;2023-03-04T03:17:00;101185.47;;;2.02;100.00
14612;BME280;7392;52.078;11.650;2023-03-04T03:19:27;101187.31;;;2.05;100.00
14612;BME280;7392;52.078;11.650;2023-03-04T03:21:55;101186.53;;;2.08;100.00
14612;BME280;7392;52.078;11.650;2023-03-04T03:24:25;101192.72;;;2.10;100.00
14612;BME280;7392;52.078;11.650;2023-03-04T03:26:54;101187.53;;;2.11;100.00
14612;BME280;7392;52.078;11.650;2023-03-04T03:29:24;101184.97;;;2.13;100.00
14612;BME280;7392;52.078;11.650;2023-03-04T03:31:52;101176.38;;;2.15;100.00
14612;BME280;7392;52.078;11.650;2023-03-04T03:34:19;101183.38;;;2.16;100.00
14612;BME280;7392;52.078;11.650;2023-03-04T03:36:48;101175.56;;;2.18;100.00
14612;BME280;7392;52.078;11.650;2023-03-04T03:39:16;101176.53;;;2.20;100.00
14612;BME280;7392;52.078;11.650;2023-03-04T03:41:44;101170.53;;;2.22;100.00
14612;BME280;7392;52.078;11.650;2023-03-04T03:44:11;101172.28;;;2.23;100.00
14612;BME280;7392;52.078;11.650;2023-03-04T03:46:40;101180.22;;;2.25;100.00
14612;BME280;7392;52.078;11.650;2023-03-04T03:49:08;101181.16;;;2.27;100.00
14612;BME280;7392;52.078;11.650;2023-03-04T03:51:36;101175.09;;;2.28;100.00
14612;BME280;7392;52.078;11.650;2023-03-04T03:54:04;101169.91;;;2.30;100.00
14612;BME280;7392;52.078;11.650;2023-03-04T03:56:31;101174.34;;;2.31;100.00
14612;BME280;7392;52.078;11.650;2023-03-04T03:58:59;101160.44;;;2.33;100.00
14612;BME280;7392;52.078;11.650;2023-03-04T04:01:27;101167.47;;;2.34;100.00
14612;BME280;7392;52.078;11.650;2023-03-04T04:03:56;101165.78;;;2.36;100.00
14612;BME280;7392;52.078;11.650;2023-03-04T04:06:24;101163.31;;;2.39;100.00
14612;BME280;7392;52.078;11.650;2023-03-04T04:08:52;101163.25;;;2.38;100.00
14612;BME280;7392;52.078;11.650;2023-03-04T04:11:20;101158.06;;;2.39;100.00
14612;BME280;7392;52.078;11.650;2023-03-04T04:13:49;101164.25;;;2.41;100.00
14612;BME280;7392;52.078;11.650;2023-03-04T04:16:17;101164.38;;;2.45;100.00
14612;BME280;7392;52.078;11.650;2023-03-04T04:18:45;101161.75;;;2.45;100.00
14612;BME280;7392;52.078;11.650;2023-03-04T04:21:14;101159.19;;;2.46;100.00
14612;BME280;7392;52.078;11.650;2023-03-04T04:23:41;101147.84;;;2.47;100.00
14612;BME280;7392;52.078;11.650;2023-03-04T04:26:10;101150.50;;;2.49;100.00
14612;BME280;7392;52.078;11.650;2023-03-04T04:28:37;101147.97;;;2.50;100.00
14612;BME280;7392;52.078;11.650;2023-03-04T04:31:06;101156.75;;;2.52;100.00
14612;BME280;7392;52.078;11.650;2023-03-04T04:33:35;101158.50;;;2.52;100.00
14612;BME280;7392;52.078;11.650;2023-03-04T04:36:04;101150.69;;;2.53;100.00
14612;BME280;7392;52.078;11.650;2023-03-04T04:38:33;101153.31;;;2.53;100.00
14612;BME280;7392;52.078;11.650;2023-03-04T04:41:00;101153.31;;;2.53;100.00
14612;BME280;7392;52.078;11.650;2023-03-04T04:43:28;101155.09;;;2.54;100.00
14612;BME280;7392;52.078;11.650;2023-03-04T04:45:58;101156.00;;;2.55;100.00
14612;BME280;7392;52.078;11.650;2023-03-04T04:48:26;101149.84;;;2.54;100.00
14612;BME280;7392;52.078;11.650;2023-03-04T04:50:54;101152.47;;;2.54;100.00
14612;BME280;7392;52.078;11.650;2023-03-04T04:53:22;101155.09;;;2.54;100.00
14612;BME280;7392;52.078;11.650;2023-03-04T04:55:51;101152.47;;;2.54;100.00
14612;BME280;7392;52.078;11.650;2023-03-04T04:58:19;101152.47;;;2.54;100.00
14612;BME280;7392;52.078;11.650;2023-03-04T05:00:47;101153.38;;;2.55;100.00
14612;BME280;7392;52.078;11.650;2023-03-04T05:03:15;101138.59;;;2.57;100.00
14612;BME280;7392;52.078;11.650;2023-03-04T05:05:44;101148.19;;;2.56;100.00
14612;BME280;7392;52.078;11.650;2023-03-04T05:08:11;101148.22;;;2.58;100.00
14612;BME280;7392;52.078;11.650;2023-03-04T05:10:39;101153.53;;;2.59;100.00
14612;BME280;7392;52.078;11.650;2023-03-04T05:13:08;101143.94;;;2.60;100.00
14612;BME280;7392;52.078;11.650;2023-03-04T05:15:36;101136.06;;;2.60;100.00
14612;BME280;7392;52.078;11.650;2023-03-04T05:18:04;101138.69;;;2.60;100.00
14612;BME280;7392;52.078;11.650;2023-03-04T05:20:32;101135.22;;;2.61;100.00
14612;BME280;7392;52.078;11.650;2023-03-04T05:23:00;101133.53;;;2.61;100.00
14612;BME280;7392;52.078;11.650;2023-03-04T05:25:28;101134.41;;;2.62;100.00
14612;BME280;7392;52.078;11.650;2023-03-04T05:27:55;101132.59;;;2.61;100.00
14612;BME280;7392;52.078;11.650;2023-03-04T05:30:25;101123.09;;;2.63;100.00
14612;BME280;7392;52.078;11.650;2023-03-04T05:32:52;101128.34;;;2.63;100.00
14612;BME280;7392;52.078;11.650;2023-03-04T05:35:20;101116.09;;;2.64;100.00
14612;BME280;7392;52.078;11.650;2023-03-04T05:37:48;101124.03;;;2.65;100.00
14612;BME280;7392;52.078;11.650;2023-03-04T05:40:16;101115.25;;;2.65;100.00
14612;BME280;7392;52.078;11.650;2023-03-04T05:42:44;101126.66;;;2.65;100.00
14612;BME280;7392;52.078;11.650;2023-03-04T05:45:12;101110.06;;;2.66;100.00
14612;BME280;7392;52.078;11.650;2023-03-04T05:47:41;101115.28;;;2.66;100.00
14612;BME280;7392;52.078;11.650;2023-03-04T05:50:10;101117.09;;;2.67;100.00
14612;BME280;7392;52.078;11.650;2023-03-04T05:52:38;101122.41;;;2.69;100.00
14612;BME280;7392;52.078;11.650;2023-03-04T05:55:07;101115.41;;;2.69;100.00
14612;BME280;7392;52.078;11.650;2023-03-04T05:57:35;101113.66;;;2.70;100.00
14612;BME280;7392;52.078;11.650;2023-03-04T06:00:04;101113.66;;;2.68;100.00
14612;BME280;7392;52.078;11.650;2023-03-04T06:02:42;101116.34;;;2.71;100.00
14612;BME280;7392;52.078;11.650;2023-03-04T06:05:12;101126.03;;;2.72;100.00
14612;BME280;7392;52.078;11.650;2023-03-04T06:07:40;101127.75;;;2.72;100.00
14612;BME280;7392;52.078;11.650;2023-03-04T06:10:12;101124.22;;;2.71;100.00
14612;BME280;7392;52.078;11.650;2023-03-04T06:12:40;101126.91;;;2.73;100.00
14612;BME280;7392;52.078;11.650;2023-03-04T06:15:10;101122.50;;;2.72;100.00
14612;BME280;7392;52.078;11.650;2023-03-04T06:17:39;101126.91;;;2.73;100.00
14612;BME280;7392;52.078;11.650;2023-03-04T06:20:10;101119.94;;;2.73;100.00
14612;BME280;7392;52.078;11.650;2023-03-04T06:22:38;101127.03;;;2.76;100.00
14612;BME280;7392;52.078;11.650;2023-03-04T06:25:07;101127.03;;;2.76;100.00
14612;BME280;7392;52.078;11.650;2023-03-04T06:27:35;101127.09;;;2.77;100.00
14612;BME280;7392;52.078;11.650;2023-03-04T06:30:03;101126.25;;;2.78;100.00
14612;BME280;7392;52.078;11.650;2023-03-04T06:32:32;101129.81;;;2.80;100.00
14612;BME280;7392;52.078;11.650;2023-03-04T06:35:00;101140.44;;;2.84;100.00
14612;BME280;7392;52.078;11.650;2023-03-04T06:37:29;101134.31;;;2.85;100.00
14612;BME280;7392;52.078;11.650;2023-03-04T06:39:57;101133.50;;;2.86;100.00
14612;BME280;7392;52.078;11.650;2023-03-04T06:42:25;101136.25;;;2.89;100.00
14612;BME280;7392;52.078;11.650;2023-03-04T06:44:52;101136.25;;;2.90;100.00
14612;BME280;7392;52.078;11.650;2023-03-04T06:47:20;101139.81;;;2.91;100.00
14612;BME280;7392;52.078;11.650;2023-03-04T06:49:48;101139.00;;;2.93;100.00
14612;BME280;7392;52.078;11.650;2023-03-04T06:52:16;101140.81;;;2.94;100.00
14612;BME280;7392;52.078;11.650;2023-03-04T06:54:45;101144.38;;;2.96;100.00
14612;BME280;7392;52.078;11.650;2023-03-04T06:57:12;101148.03;;;3.02;100.00
14612;BME280;7392;52.078;11.650;2023-03-04T06:59:40;101139.34;;;3.03;100.00
14612;BME280;7392;52.078;11.650;2023-03-04T07:02:10;101135.91;;;3.05;100.00
14612;BME280;7392;52.078;11.650;2023-03-04T07:04:38;101140.41;;;3.08;100.00
14612;BME280;7392;52.078;11.650;2023-03-04T07:07:06;101137.81;;;3.09;100.00
14612;BME280;7392;52.078;11.650;2023-03-04T07:09:34;101129.09;;;3.10;100.00
14612;BME280;7392;52.078;11.650;2023-03-04T07:12:03;101135.28;;;3.12;100.00
14612;BME280;7392;52.078;11.650;2023-03-04T07:14:32;101138.81;;;3.13;100.00
14612;BME280;7392;52.078;11.650;2023-03-04T07:16:59;101134.50;;;3.15;100.00
14612;BME280;7392;52.078;11.650;2023-03-04T07:19:27;101134.66;;;3.20;100.00
14612;BME280;7392;52.078;11.650;2023-03-04T07:21:55;101131.25;;;3.22;100.00
14612;BME280;7392;52.078;11.650;2023-03-04T07:24:23;101128.72;;;3.25;100.00
14612;BME280;7392;52.078;11.650;2023-03-04T07:26:51;101126.16;;;3.27;100.00
14612;BME280;7392;52.078;11.650;2023-03-04T07:29:20;101130.66;;;3.31;100.00
14612;BME280;7392;52.078;11.650;2023-03-04T07:31:47;101140.38;;;3.33;100.00
14612;BME280;7392;52.078;11.650;2023-03-04T07:34:18;101134.28;;;3.34;100.00
14612;BME280;7392;52.078;11.650;2023-03-04T07:36:46;101132.56;;;3.35;100.00
14612;BME280;7392;52.078;11.650;2023-03-04T07:39:14;101138.81;;;3.39;100.00
14612;BME280;7392;52.078;11.650;2023-03-04T07:41:42;101137.13;;;3.41;100.00
14612;BME280;7392;52.078;11.650;2023-03-04T07:44:10;101137.22;;;3.44;100.00
14612;BME280;7392;52.078;11.650;2023-03-04T07:46:40;101131.16;;;3.46;100.00
14612;BME280;7392;52.078;11.650;2023-03-04T07:49:10;101134.72;;;3.48;100.00
14612;BME280;7392;52.078;11.650;2023-03-04T07:51:38;101144.47;;;3.51;100.00
14612;BME280;7392;52.078;11.650;2023-03-04T07:54:09;101134.88;;;3.53;100.00
14612;BME280;7392;52.078;11.650;2023-03-04T07:56:37;101148.97;;;3.55;100.00
14612;BME280;7392;52.078;11.650;2023-03-04T07:59:04;101146.38;;;3.56;100.00
14612;BME280;7392;52.078;11.650;2023-03-04T08:01:34;101129.78;;;3.58;100.00
14612;BME280;7392;52.078;11.650;2023-03-04T08:04:04;101136.03;;;3.61;100.00
14612;BME280;7392;52.078;11.650;2023-03-04T08:06:33;101139.66;;;3.65;100.00
14612;BME280;7392;52.078;11.650;2023-03-04T08:09:07;101138.00;;;3.68;100.00
14612;BME280;7392;52.078;11.650;2023-03-04T08:11:36;101134.66;;;3.74;100.00
14612;BME280;7392;52.078;11.650;2023-03-04T08:14:05;101140.03;;;3.77;100.00
14612;BME280;7392;52.078;11.650;2023-03-04T08:16:35;101144.50;;;3.80;100.00
14612;BME280;7392;52.078;11.650;2023-03-04T08:19:05;101133.25;;;3.84;100.00
14612;BME280;7392;52.078;11.650;2023-03-04T08:21:36;101140.41;;;3.89;100.00
14612;BME280;7392;52.078;11.650;2023-03-04T08:24:06;101135.25;;;3.92;100.00
14612;BME280;7392;52.078;11.650;2023-03-04T08:26:39;101145.00;;;3.95;100.00
14612;BME280;7392;52.078;11.650;2023-03-04T08:29:11;101136.28;;;3.98;100.00
14612;BME280;7392;52.078;11.650;2023-03-04T08:31:39;101130.31;;;4.02;100.00
14612;BME280;7392;52.078;11.650;2023-03-04T08:34:09;101133.09;;;4.08;100.00
14612;BME280;7392;52.078;11.650;2023-03-04T08:36:38;101133.19;;;4.11;100.00
14612;BME280;7392;52.078;11.650;2023-03-04T08:39:06;101124.53;;;4.14;100.00
14612;BME280;7392;52.078;11.650;2023-03-04T08:41:34;101136.06;;;4.19;100.00
14612;BME280;7392;52.078;11.650;2023-03-04T08:44:02;101129.13;;;4.21;100.00
14612;BME280;7392;52.078;11.650;2023-03-04T08:46:30;101127.41;;;4.23;100.00
14612;BME280;7392;52.078;11.650;2023-03-04T08:48:58;101133.66;;;4.26;100.00
14612;BME280;7392;52.078;11.650;2023-03-04T08:51:28;101135.56;;;4.30;100.00
14612;BME280;7392;52.078;11.650;2023-03-04T08:53:55;101134.69;;;4.31;100.00
14612;BME280;7392;52.078;11.650;2023-03-04T08:56:23;101134.81;;;4.36;100.00
14612;BME280;7392;52.078;11.650;2023-03-04T08:58:51;101127.03;;;4.39;100.00
14612;BME280;7392;52.078;11.650;2023-03-04T09:01:19;101107.00;;;4.44;100.00
14612;BME280;7392;52.078;11.650;2023-03-04T09:03:47;101115.00;;;4.49;100.00
14612;BME280;7392;52.078;11.650;2023-03-04T09:06:16;101128.34;;;4.55;100.00
14612;BME280;7392;52.078;11.650;2023-03-04T09:08:49;101117.00;;;4.58;100.00
14612;BME280;7392;52.078;11.650;2023-03-04T09:11:17;101128.53;;;4.61;100.00
14612;BME280;7392;52.078;11.650;2023-03-04T09:13:47;101112.88;;;4.66;100.00
14612;BME280;7392;52.078;11.650;2023-03-04T09:16:17;101116.56;;;4.73;100.00
14612;BME280;7392;52.078;11.650;2023-03-04T09:18:45;101107.03;;;4.78;100.00
14612;BME280;7392;52.078;11.650;2023-03-04T09:21:13;101098.44;;;4.83;100.00
14612;BME280;7392;52.078;11.650;2023-03-04T09:23:41;101110.00;;;4.90;100.00
14612;BME280;7392;52.078;11.650;2023-03-04T09:26:16;101113.69;;;4.97;100.00
14612;BME280;7392;52.078;11.650;2023-03-04T09:28:49;101104.31;;;5.06;100.00
14612;BME280;7392;52.078;11.650;2023-03-04T09:31:16;101110.75;;;5.18;100.00
14612;BME280;7392;52.078;11.650;2023-03-04T09:33:44;101111.09;;;5.32;100.00
14612;BME280;7392;52.078;11.650;2023-03-04T09:36:13;101112.34;;;5.48;100.00
14612;BME280;7392;52.078;11.650;2023-03-04T09:38:42;101104.78;;;5.61;100.00
14612;BME280;7392;52.078;11.650;2023-03-04T09:41:17;101109.38;;;5.70;100.00
14612;BME280;7392;52.078;11.650;2023-03-04T09:43:48;101104.44;;;5.86;100.00
14612;BME280;7392;52.078;11.650;2023-03-04T09:46:25;101104.56;;;5.90;100.00
14612;BME280;7392;52.078;11.650;2023-03-04T09:48:58;101103.69;;;5.90;100.00
14612;BME280;7392;52.078;11.650;2023-03-04T09:54:26;101101.78;;;5.83;100.00
14612;BME280;7392;52.078;11.650;2023-03-04T09:57:12;101098.91;;;5.73;100.00
14612;BME280;7392;52.078;11.650;2023-03-04T09:59:51;101096.19;;;5.70;100.00
14612;BME280;7392;52.078;11.650;2023-03-04T10:02:24;101094.50;;;5.72;100.00
14612;BME280;7392;52.078;11.650;2023-03-04T10:04:58;101085.22;;;5.90;100.00
14612;BME280;7392;52.078;11.650;2023-03-04T10:07:32;101087.94;;;5.93;100.00
14612;BME280;7392;52.078;11.650;2023-03-04T10:10:04;101089.69;;;5.94;100.00
14612;BME280;7392;52.078;11.650;2023-03-04T10:12:36;101100.13;;;5.89;100.00
14612;BME280;7392;52.078;11.650;2023-03-04T10:15:17;101089.59;;;5.89;100.00
14612;BME280;7392;52.078;11.650;2023-03-04T10:17:50;101098.41;;;5.90;100.00
14612;BME280;7392;52.078;11.650;2023-03-04T10:20:23;101093.94;;;5.87;100.00
14612;BME280;7392;52.078;11.650;2023-03-04T10:22:55;101092.94;;;5.82;100.00
14612;BME280;7392;52.078;11.650;2023-03-04T10:25:26;101092.94;;;5.82;100.00
14612;BME280;7392;52.078;11.650;2023-03-04T10:27:58;101098.22;;;5.82;100.00
14612;BME280;7392;52.078;11.650;2023-03-04T10:30:36;101100.75;;;5.76;100.00
14612;BME280;7392;52.078;11.650;2023-03-04T10:33:11;101095.31;;;5.70;100.00
14612;BME280;7392;52.078;11.650;2023-03-04T10:35:41;101103.84;;;5.59;100.00
14612;BME280;7392;52.078;11.650;2023-03-04T10:38:12;101100.25;;;5.56;100.00
14612;BME280;7392;52.078;11.650;2023-03-04T10:40:41;101106.28;;;5.50;100.00
14612;BME280;7392;52.078;11.650;2023-03-04T10:43:17;101099.88;;;5.40;100.00
14612;BME280;7392;52.078;11.650;2023-03-04T10:45:46;101100.69;;;5.36;100.00
14612;BME280;7392;52.078;11.650;2023-03-04T10:48:19;101105.88;;;5.33;100.00
14612;BME280;7392;52.078;11.650;2023-03-04T10:50:48;101103.09;;;5.29;100.00
14612;BME280;7392;52.078;11.650;2023-03-04T10:53:24;101108.94;;;5.17;100.00
14612;BME280;7392;52.078;11.650;2023-03-04T10:55:55;101101.75;;;5.10;100.00
14612;BME280;7392;52.078;11.650;2023-03-04T10:58:26;101105.13;;;5.05;100.00
14612;BME280;7392;52.078;11.650;2023-03-04T11:01:00;101112.13;;;5.03;100.00
14612;BME280;7392;52.078;11.650;2023-03-04T11:03:32;101115.66;;;5.05;100.00
14612;BME280;7392;52.078;11.650;2023-03-04T11:06:09;101123.56;;;5.04;100.00
14612;BME280;7392;52.078;11.650;2023-03-04T11:08:39;101123.38;;;4.98;100.00
14612;BME280;7392;52.078;11.650;2023-03-04T11:11:26;101116.28;;;4.94;99.50
14612;BME280;7392;52.078;11.650;2023-03-04T11:13:59;101118.13;;;4.98;99.68
14612;BME280;7392;52.078;11.650;2023-03-04T11:16:30;101116.31;;;4.97;97.59
14612;BME280;7392;52.078;11.650;2023-03-04T11:19:03;101111.84;;;4.93;94.51
14612;BME280;7392;52.078;11.650;2023-03-04T11:21:37;101107.50;;;4.95;95.40
14612;BME280;7392;52.078;11.650;2023-03-04T11:24:12;101104.00;;;4.94;93.66
14612;BME280;7392;52.078;11.650;2023-03-04T11:26:59;101114.56;;;4.96;93.45
14612;BME280;7392;52.078;11.650;2023-03-04T11:29:35;101115.56;;;5.01;93.09
14612;BME280;7392;52.078;11.650;2023-03-04T11:32:08;101104.16;;;5.02;93.28
14612;BME280;7392;52.078;11.650;2023-03-04T11:34:43;101117.47;;;5.06;93.66
14612;BME280;7392;52.078;11.650;2023-03-04T11:37:18;101111.38;;;5.08;92.55
14612;BME280;7392;52.078;11.650;2023-03-04T11:39:51;101104.34;;;5.08;92.15
14612;BME280;7392;52.078;11.650;2023-03-04T11:42:31;101115.84;;;5.12;91.39
14612;BME280;7392;52.078;11.650;2023-03-04T11:45:10;101113.44;;;5.19;92.02
14612;BME280;7392;52.078;11.650;2023-03-04T11:48:02;101105.63;;;5.24;92.31
14612;BME280;7392;52.078;11.650;2023-03-04T11:50:42;101107.41;;;5.25;91.41
14612;BME280;7392;52.078;11.650;2023-03-04T11:53:43;101095.13;;;5.25;91.17
14612;BME280;7392;52.078;11.650;2023-03-04T11:56:26;101112.81;;;5.30;91.08
14612;BME280;7392;52.078;11.650;2023-03-04T11:59:10;101097.03;;;5.31;90.89
14612;BME280;7392;52.078;11.650;2023-03-04T12:01:54;101089.19;;;5.34;91.72
14612;BME280;7392;52.078;11.650;2023-03-04T12:04:34;101093.75;;;5.40;91.75
14612;BME280;7392;52.078;11.650;2023-03-04T12:07:15;101094.69;;;5.43;91.69
14612;BME280;7392;52.078;11.650;2023-03-04T12:10:00;101079.72;;;5.42;90.72
14612;BME280;7392;52.078;11.650;2023-03-04T12:12:41;101086.00;;;5.48;90.56
14612;BME280;7392;52.078;11.650;2023-03-04T12:15:18;101088.81;;;5.54;90.11
14612;BME280;7392;52.078;11.650;2023-03-04T12:18:04;101082.91;;;5.64;90.18
14612;BME280;7392;52.078;11.650;2023-03-04T12:21:06;101083.88;;;5.69;88.46
14612;BME280;7392;52.078;11.650;2023-03-04T12:24:02;101058.41;;;5.70;87.29
14612;BME280;7392;52.078;11.650;2023-03-04T12:26:38;101073.38;;;5.71;86.11
14612;BME280;7392;52.078;11.650;2023-03-04T12:29:14;101071.75;;;5.76;86.50
14612;BME280;7392;52.078;11.650;2023-03-04T12:31:49;101077.09;;;5.80;85.57
14612;BME280;7392;52.078;11.650;2023-03-04T12:34:33;101067.50;;;5.84;84.48
14612;BME280;7392;52.078;11.650;2023-03-04T12:37:21;101068.41;;;5.85;83.73
14612;BME280;7392;52.078;11.650;2023-03-04T12:40:05;101070.13;;;5.83;82.88
14612;BME280;7392;52.078;11.650;2023-03-04T12:42:39;101065.75;;;5.83;82.68
14612;BME280;7392;52.078;11.650;2023-03-04T12:45:17;101064.91;;;5.86;82.06
14612;BME280;7392;52.078;11.650;2023-03-04T12:47:56;101072.00;;;5.88;81.81
14612;BME280;7392;52.078;11.650;2023-03-04T12:50:36;101063.25;;;5.91;81.47
14612;BME280;7392;52.078;11.650;2023-03-04T12:53:13;101074.72;;;5.91;80.34
14612;BME280;7392;52.078;11.650;2023-03-04T12:55:46;101063.22;;;5.88;79.43
14612;BME280;7392;52.078;11.650;2023-03-04T12:58:17;101061.44;;;5.87;80.06
14612;BME280;7392;52.078;11.650;2023-03-04T13:00:52;101065.84;;;5.88;80.90
14612;BME280;7392;52.078;11.650;2023-03-04T13:03:29;101067.63;;;5.89;80.34
14612;BME280;7392;52.078;11.650;2023-03-04T13:06:13;101065.84;;;5.88;80.62
14612;BME280;7392;52.078;11.650;2023-03-04T13:08:54;101059.63;;;5.86;80.75
14612;BME280;7392;52.078;11.650;2023-03-04T13:11:49;101064.91;;;5.86;81.14